createdAt,value
2018-10-11T00:01:10.603Z,25.03
2018-10-11T00:05:18.719Z,27.33
2018-10-11T00:09:26.823Z,25.20
2018-10-11T00:13:34.943Z,28.33
2018-10-11T00:17:43.063Z,24.70
2018-10-11T00:21:51.179Z,23.63
2018-10-11T00:25:59.296Z,27.30
2018-10-11T00:30:07.496Z,27.93
2018-10-11T00:34:15.603Z,26.77
2018-10-11T00:38:23.829Z,26.47
2018-10-11T00:42:31.923Z,24.67
2018-10-11T00:46:40.071Z,25.77
2018-10-11T00:50:48.192Z,24.97
2018-10-11T00:54:56.464Z,24.12
2018-10-11T00:59:04.579Z,25.50
2018-10-11T01:03:12.691Z,21.47
2018-10-11T01:07:20.795Z,21.83
2018-10-11T01:11:28.915Z,24.23
2018-10-11T01:15:37.028Z,24.57
2018-10-11T01:19:45.155Z,24.57
2018-10-11T01:23:53.327Z,26.10
2018-10-11T01:28:01.397Z,24.10
2018-10-11T01:32:09.500Z,27.03
2018-10-11T01:36:17.611Z,21.77
2018-10-11T01:40:26.036Z,25.40
2018-10-11T01:44:34.153Z,25.33
2018-10-11T01:48:42.255Z,25.37
2018-10-11T01:52:50.468Z,20.23
2018-10-11T01:56:58.571Z,24.90
2018-10-11T02:01:06.795Z,22.17
2018-10-11T02:05:14.916Z,21.13
2018-10-11T02:09:23.072Z,23.47
2018-10-11T02:13:31.142Z,21.93
2018-10-11T02:17:39.551Z,22.20
2018-10-11T02:21:47.679Z,19.30
2018-10-11T02:25:55.818Z,18.70
2018-10-11T02:30:03.920Z,22.10
2018-10-11T02:34:12.091Z,22.17
2018-10-11T02:38:20.208Z,20.33
2018-10-11T02:42:28.350Z,21.17
2018-10-11T02:46:36.467Z,20.20
2018-10-11T02:50:44.576Z,19.07
2018-10-11T02:54:52.692Z,22.67
2018-10-11T02:59:12.319Z,23.33
2018-10-11T03:03:24.028Z,22.40
2018-10-11T03:07:31.925Z,26.70
2018-10-11T03:11:40.052Z,24.67
2018-10-11T03:15:48.163Z,20.07
2018-10-11T03:19:56.278Z,19.80
2018-10-11T03:24:04.375Z,21.02
2018-10-11T03:28:14.199Z,23.30
2018-10-11T03:32:22.319Z,21.97
2018-10-11T03:36:31.031Z,20.40
2018-10-11T03:40:39.132Z,22.80
2018-10-11T03:44:47.235Z,23.17
2018-10-11T03:48:55.352Z,21.73
2018-10-11T03:53:03.495Z,22.30
2018-10-11T03:57:11.615Z,19.87
2018-10-11T04:01:19.727Z,23.17
2018-10-11T04:05:27.852Z,20.17
2018-10-11T04:09:35.968Z,23.63
2018-10-11T04:13:44.500Z,22.40
2018-10-11T04:17:52.611Z,21.17
2018-10-11T04:22:00.736Z,17.00
2018-10-11T04:26:08.851Z,20.07
2018-10-11T04:30:16.968Z,18.63
2018-10-11T04:34:25.383Z,18.53
2018-10-11T04:38:33.499Z,21.17
2018-10-11T04:42:41.706Z,17.73
2018-10-11T04:46:49.747Z,19.20
2018-10-11T04:50:57.868Z,20.27
2018-10-11T04:55:06.040Z,19.30
2018-10-11T04:59:14.156Z,18.33
2018-10-11T05:03:22.287Z,20.00
2018-10-11T05:07:30.393Z,20.23
2018-10-11T05:11:39.140Z,20.20
2018-10-11T05:15:47.259Z,21.40
2018-10-11T05:19:55.376Z,20.70
2018-10-11T05:24:03.508Z,15.27
2018-10-11T05:28:11.624Z,15.70
2018-10-11T05:32:19.763Z,22.70
2018-10-11T05:36:27.864Z,21.70
2018-10-11T05:40:36.003Z,25.37
2018-10-11T05:44:44.324Z,20.53
2018-10-11T05:48:52.696Z,17.90
2018-10-11T05:53:00.807Z,17.80
2018-10-11T05:57:08.925Z,20.33
2018-10-11T06:01:17.035Z,22.07
2018-10-11T06:05:25.254Z,19.00
2018-10-11T06:09:33.374Z,23.50
2018-10-11T06:13:41.795Z,21.25
2018-10-11T06:17:49.960Z,20.90
2018-10-11T06:21:58.035Z,19.23
2018-10-11T06:26:06.260Z,20.70
2018-10-11T06:30:14.910Z,22.27
2018-10-11T06:34:22.988Z,20.63
2018-10-11T06:38:31.163Z,18.47
2018-10-11T06:42:39.077Z,17.47
2018-10-11T06:46:47.235Z,22.17
2018-10-11T06:50:55.444Z,19.33
2018-10-11T06:55:03.588Z,20.35
2018-10-11T06:59:11.704Z,18.87
2018-10-11T07:03:19.814Z,19.00
2018-10-11T07:07:27.941Z,16.70
2018-10-11T07:11:36.060Z,22.60
2018-10-11T07:15:44.172Z,15.70
2018-10-11T07:19:52.306Z,28.80
2018-10-11T07:24:00.421Z,20.77
2018-10-11T07:28:08.548Z,16.52
2018-10-11T07:32:16.664Z,16.20
2018-10-11T07:36:24.779Z,20.03
2018-10-11T07:40:33.558Z,19.40
2018-10-11T07:44:41.660Z,73.73
2018-10-11T07:48:49.775Z,33.63
2018-10-11T07:52:57.909Z,27.10
2018-10-11T07:57:06.123Z,27.60
2018-10-11T08:01:14.296Z,29.33
2018-10-11T08:05:22.723Z,21.57
2018-10-11T08:09:30.840Z,20.70
2018-10-11T08:13:39.114Z,21.40
2018-10-11T08:17:47.421Z,17.30
2018-10-11T08:21:55.212Z,19.37
2018-10-11T08:26:03.811Z,21.33
2018-10-11T08:30:11.467Z,18.93
2018-10-11T08:34:19.569Z,20.30
2018-10-11T08:38:27.751Z,20.47
2018-10-11T08:42:35.803Z,20.10
2018-10-11T08:46:43.915Z,14.90
2018-10-11T08:50:52.591Z,14.90
2018-10-11T08:55:00.673Z,15.30
2018-10-11T08:59:08.804Z,15.00
2018-10-11T09:03:17.104Z,12.53
2018-10-11T09:07:25.155Z,15.60
2018-10-11T09:11:33.307Z,13.10
2018-10-11T09:15:41.619Z,11.50
2018-10-11T09:19:49.648Z,9.60
2018-10-11T09:23:57.763Z,12.07
2018-10-11T09:28:05.972Z,6.80
2018-10-11T09:32:14.091Z,6.40
2018-10-11T09:36:22.246Z,8.43
2018-10-11T09:40:30.317Z,6.17
2018-10-11T09:44:38.421Z,7.53
2018-10-11T09:48:46.585Z,5.60
2018-10-11T09:52:54.668Z,10.43
2018-10-11T09:57:23.407Z,6.60
2018-10-11T10:01:36.982Z,10.40
2018-10-11T10:05:45.094Z,7.37
2018-10-11T10:09:53.276Z,6.07
2018-10-11T10:14:01.334Z,5.60
2018-10-11T10:18:09.455Z,5.57
2018-10-11T10:22:17.572Z,5.70
2018-10-11T10:26:25.704Z,5.77
2018-10-11T10:30:39.154Z,5.33
2018-10-11T10:34:47.280Z,6.40
2018-10-11T10:38:55.406Z,5.47
2018-10-11T10:43:03.508Z,5.43
2018-10-11T10:47:11.642Z,6.80
2018-10-11T10:51:19.784Z,7.90
2018-10-11T10:55:27.975Z,6.10
2018-10-11T10:59:36.104Z,6.50
2018-10-11T11:03:50.951Z,6.60
2018-10-11T11:07:59.140Z,7.57
2018-10-11T11:12:07.264Z,7.47
2018-10-11T11:16:15.396Z,6.67
2018-10-11T11:20:23.528Z,6.93
2018-10-11T11:24:31.652Z,9.00
2018-10-11T11:28:39.792Z,5.83
2018-10-11T11:32:47.953Z,6.60
2018-10-11T11:36:56.088Z,6.20
2018-10-11T11:41:04.220Z,6.10
2018-10-11T11:45:12.362Z,7.03
2018-10-11T11:49:20.504Z,6.63
2018-10-11T11:53:28.627Z,6.60
2018-10-11T11:57:36.744Z,6.30
2018-10-11T12:01:44.872Z,8.00
2018-10-11T12:05:53.000Z,7.40
2018-10-11T12:10:01.128Z,6.47
2018-10-11T12:14:09.487Z,5.50
2018-10-11T12:18:17.607Z,6.30
2018-10-11T12:22:25.737Z,5.90
2018-10-11T12:26:33.868Z,5.53
2018-10-11T12:30:42.001Z,5.00
2018-10-11T12:34:50.108Z,5.10
2018-10-11T12:38:58.244Z,4.77
2018-10-11T12:43:06.364Z,5.13
2018-10-11T12:47:14.499Z,4.43
2018-10-11T12:51:22.681Z,5.20
2018-10-11T12:55:30.813Z,5.00
2018-10-11T12:59:38.941Z,3.87
2018-10-11T13:03:47.080Z,4.40
2018-10-11T13:07:55.200Z,4.50
2018-10-11T13:12:03.664Z,3.90
2018-10-11T13:16:11.803Z,4.03
2018-10-11T13:20:19.972Z,3.53
2018-10-11T13:24:28.132Z,4.63
2018-10-11T13:28:36.288Z,3.90
2018-10-11T13:32:44.440Z,4.83
2018-10-11T13:36:52.595Z,5.30
2018-10-11T13:41:03.080Z,5.10
2018-10-11T13:45:08.911Z,5.73
2018-10-11T13:49:17.080Z,6.80
2018-10-11T13:53:25.256Z,8.73
2018-10-11T13:57:33.421Z,7.83
2018-10-11T14:01:41.620Z,6.07
2018-10-11T14:05:49.801Z,4.90
2018-10-11T14:09:57.950Z,5.30
2018-10-11T14:14:06.128Z,5.33
2018-10-11T14:18:14.648Z,5.20
2018-10-11T14:22:22.783Z,5.50
2018-10-11T14:26:30.904Z,5.40
2018-10-11T14:30:39.026Z,5.43
2018-10-11T14:34:47.159Z,4.90
2018-10-11T14:38:55.288Z,5.20
2018-10-11T14:43:03.425Z,4.60
2018-10-11T14:47:11.571Z,4.83
2018-10-11T14:51:19.734Z,5.00
2018-10-11T14:55:27.839Z,5.23
2018-10-11T14:59:36.272Z,4.40
2018-10-11T15:03:44.336Z,5.43
2018-10-11T15:07:52.473Z,4.40
2018-10-11T15:12:00.612Z,5.13
2018-10-11T15:16:08.617Z,4.83
2018-10-11T15:20:16.777Z,6.00
2018-10-11T15:24:24.919Z,5.03
2018-10-11T15:28:33.075Z,4.90
2018-10-11T15:32:41.229Z,5.13
2018-10-11T15:36:49.387Z,5.60
2018-10-11T15:40:57.544Z,5.70
2018-10-11T15:45:07.001Z,6.07
2018-10-11T15:49:15.144Z,5.50
2018-10-11T15:53:23.305Z,10.90
2018-10-11T15:57:31.521Z,6.37
2018-10-11T16:01:39.660Z,5.40
2018-10-11T16:05:48.094Z,6.43
2018-10-11T16:09:55.991Z,6.47
2018-10-11T16:14:04.184Z,8.10
2018-10-11T16:18:12.351Z,6.90
2018-10-11T16:22:20.572Z,6.33
2018-10-11T16:26:28.804Z,11.70
2018-10-11T16:30:37.221Z,21.20
2018-10-11T16:34:45.388Z,7.70
2018-10-11T16:38:53.552Z,10.53
2018-10-11T16:43:01.856Z,12.33
2018-10-11T16:47:10.020Z,11.67
2018-10-11T16:51:18.211Z,24.43
2018-10-11T16:55:26.377Z,11.20
2018-10-11T16:59:34.541Z,9.73
2018-10-11T17:03:42.700Z,10.27
2018-10-11T17:07:50.881Z,18.07
2018-10-11T17:11:59.058Z,37.73
2018-10-11T17:16:07.220Z,13.17
2018-10-11T17:20:15.380Z,11.03
2018-10-11T17:24:23.548Z,15.93
2018-10-11T17:28:31.713Z,19.70
2018-10-11T17:32:39.882Z,9.83
2018-10-11T17:36:48.052Z,13.93
2018-10-11T17:40:56.214Z,31.97
2018-10-11T17:45:04.397Z,20.97
2018-10-11T17:49:12.569Z,20.10
2018-10-11T17:53:20.748Z,37.20
2018-10-11T17:57:28.911Z,28.17
2018-10-11T18:01:37.083Z,25.05
2018-10-11T18:05:45.239Z,23.90
2018-10-11T18:09:53.414Z,15.50
2018-10-11T18:14:01.584Z,19.00
2018-10-11T18:18:09.750Z,15.40
2018-10-11T18:22:17.921Z,16.40
2018-10-11T18:26:26.182Z,16.77
2018-10-11T18:30:34.383Z,20.27
2018-10-11T18:34:42.614Z,17.90
2018-10-11T18:38:50.777Z,17.13
2018-10-11T18:42:58.987Z,13.93
2018-10-11T18:47:07.339Z,14.57
2018-10-11T18:51:15.537Z,13.47
2018-10-11T18:55:23.697Z,14.63
2018-10-11T18:59:31.868Z,13.63
2018-10-11T19:03:40.051Z,46.50
2018-10-11T19:07:48.216Z,16.93
2018-10-11T19:11:56.443Z,12.43
2018-10-11T19:16:04.602Z,14.03
2018-10-11T19:20:12.773Z,11.70
2018-10-11T19:24:20.904Z,12.63
2018-10-11T19:28:29.057Z,12.47
2018-10-11T19:32:37.231Z,13.00
2018-10-11T19:36:45.418Z,13.70
2018-10-11T19:40:53.624Z,15.77
2018-10-11T19:45:01.769Z,13.97
2018-10-11T19:49:09.953Z,13.87
2018-10-11T19:53:18.111Z,21.30
2018-10-11T19:57:26.252Z,13.43
2018-10-11T20:01:34.416Z,15.67
2018-10-11T20:05:42.651Z,21.63
2018-10-11T20:09:50.800Z,16.60
2018-10-11T20:13:58.956Z,17.43
2018-10-11T20:18:07.097Z,20.93
2018-10-11T20:22:15.322Z,14.80
2018-10-11T20:26:23.512Z,15.23
2018-10-11T20:30:31.693Z,19.90
2018-10-11T20:34:39.999Z,19.50
2018-10-11T20:38:48.279Z,17.50
2018-10-11T20:42:56.428Z,18.97
2018-10-11T20:47:04.617Z,19.93
2018-10-11T20:51:12.837Z,17.87
2018-10-11T20:55:21.068Z,22.87
2018-10-11T20:59:29.260Z,18.30
2018-10-11T21:03:37.456Z,17.97
2018-10-11T21:07:45.695Z,16.47
2018-10-11T21:11:53.969Z,17.40
2018-10-11T21:16:02.128Z,16.37
2018-10-11T21:20:11.504Z,18.67
2018-10-11T21:24:19.755Z,26.83
2018-10-11T21:28:27.920Z,26.97
2018-10-11T21:32:36.120Z,16.70
2018-10-11T21:36:44.292Z,15.27
2018-10-11T21:40:52.447Z,15.10
2018-10-11T21:45:00.636Z,16.73
2018-10-11T21:49:08.811Z,15.90
2018-10-11T21:53:16.959Z,17.97
2018-10-11T21:57:25.112Z,15.50
2018-10-11T22:01:33.347Z,18.27
2018-10-11T22:05:41.732Z,17.23
2018-10-11T22:09:49.891Z,15.93
2018-10-11T22:13:58.055Z,17.13
2018-10-11T22:18:06.216Z,17.47
2018-10-11T22:22:14.352Z,19.10
2018-10-11T22:26:22.488Z,15.23
2018-10-11T22:30:30.611Z,15.97
2018-10-11T22:34:38.743Z,23.57
2018-10-11T22:38:46.863Z,23.53
2018-10-11T22:42:55.349Z,16.63
2018-10-11T22:47:03.478Z,16.20
2018-10-11T22:51:12.047Z,20.27
2018-10-11T22:55:20.172Z,15.70
2018-10-11T22:59:28.302Z,37.33
2018-10-11T23:03:36.432Z,17.30
2018-10-11T23:07:44.548Z,15.70
2018-10-11T23:11:52.670Z,29.23
2018-10-11T23:16:00.796Z,25.68
2018-10-11T23:20:09.550Z,14.43
2018-10-11T23:24:17.702Z,16.23
2018-10-11T23:28:25.858Z,14.90
2018-10-11T23:32:34.027Z,14.23
2018-10-11T23:36:42.195Z,16.47
2018-10-11T23:40:50.348Z,17.07
2018-10-11T23:44:58.491Z,20.00
2018-10-11T23:49:06.655Z,21.67
2018-10-11T23:53:14.807Z,17.60
2018-10-11T23:57:22.960Z,18.90
